Time;durP1;ratioP1;P1;durP2;ratioP2;P2;SDS_P1;SDS_P2;PMS_P1;PMS_P2;Temp;Humidity;BMP_temperature;BMP_pressure;BME280_temperature;BME280_humidity;BME280_pressure;Samples;Min_cycle;Max_cycle;Signal;HPM_P1;HPM_P2
2021/12/19 00:00:14;;;;;;;;;;;;;;;1.48;100.00;99675.16;4827901;29;19943;-70
2021/12/19 00:10:30;;;;;;;;;;;;;;;1.56;100.00;99675.28;4827862;29;19929;-69
2021/12/19 00:12:58;;;;;;;;;;;;;;;1.60;100.00;99670.78;4828211;29;19929;-69
2021/12/19 00:15:26;;;;;;;;;;;;;;;1.57;100.00;99668.63;4827435;29;19933;-69
2021/12/19 00:17:53;;;;;;;;;;;;;;;1.56;100.00;99663.44;4827684;29;19940;-69
2021/12/19 00:20:20;;;;;;;;;;;;;;;1.47;100.00;99660.56;4827511;29;20286;-69
2021/12/19 00:23:08;;;;;;;;;;;;;;;1.34;100.00;99653.13;4826875;29;20457;-70
2021/12/19 00:25:35;;;;;;;;;;;;;;;1.36;100.00;99644.53;4827720;29;19948;-69
2021/12/19 00:28:02;;;;;;;;;;;;;;;1.37;100.00;99643.41;4827354;29;19929;-70
2021/12/19 00:30:30;;;;;;;;;;;;;;;1.32;100.00;99645.13;4827870;29;19933;-70
2021/12/19 00:32:58;;;;;;;;;;;;;;;1.31;100.00;99642.69;4826787;29;19932;-70
2021/12/19 00:35:25;;;;;;;;;;;;;;;1.39;100.00;99638.41;4827365;29;19936;-69
2021/12/19 00:37:53;;;;;;;;;;;;;;;1.42;100.00;99635.84;4827637;29;19929;-69
2021/12/19 00:40:21;;;;;;;;;;;;;;;1.45;100.00;99635.25;4827287;29;19933;-69
2021/12/19 00:42:52;;;;;;;;;;;;;;;1.48;100.00;99634.66;4827201;29;19933;-70
2021/12/19 00:45:27;;;;;;;;;;;;;;;1.49;100.00;99644.56;4826704;29;19936;-70
2021/12/19 00:47:54;;;;;;;;;;;;;;;1.49;100.00;99641.81;4827608;29;19937;-69
2021/12/19 00:50:22;;;;;;;;;;;;;;;1.44;100.00;99644.66;4826977;29;19940;-70
2021/12/19 00:52:49;;;;;;;;;;;;;;;1.39;100.00;99644.75;4827082;29;19929;-69
2021/12/19 00:55:18;;;;;;;;;;;;;;;1.25;100.00;99639.22;4827396;29;19960;-69
2021/12/19 00:57:46;;;;;;;;;;;;;;;1.18;100.00;99641.56;4826842;29;19933;-69
2021/12/19 01:00:16;;;;;;;;;;;;;;;1.08;100.00;99636.22;4827289;29;19933;-69
2021/12/19 01:02:43;;;;;;;;;;;;;;;1.06;100.00;99635.72;4826704;29;19940;-71
2021/12/19 01:05:11;;;;;;;;;;;;;;;1.07;100.00;99631.03;4826786;29;20326;-69
2021/12/19 01:07:38;;;;;;;;;;;;;;;1.10;100.00;99639.47;4826717;29;19933;-69
2021/12/19 01:10:07;;;;;;;;;;;;;;;1.21;100.00;99632.69;4826974;29;19929;-69
2021/12/19 01:12:38;;;;;;;;;;;;;;;1.24;100.00;99632.09;4827074;29;19929;-70
2021/12/19 01:15:07;;;;;;;;;;;;;;;1.32;100.00;99622.28;4827071;29;19928;-70
2021/12/19 01:17:34;;;;;;;;;;;;;;;1.41;100.00;99625.16;4826724;29;19936;-70
2021/12/19 01:20:07;;;;;;;;;;;;;;;1.50;100.00;99618.59;4827018;29;20230;-70
2021/12/19 01:22:34;;;;;;;;;;;;;;;1.57;100.00;99621.78;4826567;29;19937;-70
2021/12/19 01:25:02;;;;;;;;;;;;;;;1.56;100.00;99614.66;4826304;29;20337;-69
2021/12/19 01:27:29;;;;;;;;;;;;;;;1.49;100.00;99622.50;4826931;29;19929;-69
2021/12/19 01:29:56;;;;;;;;;;;;;;;1.45;100.00;99623.41;4826927;29;19936;-70
2021/12/19 01:32:24;;;;;;;;;;;;;;;1.42;100.00;99619.31;4826743;29;19937;-70
2021/12/19 01:34:51;;;;;;;;;;;;;;;1.32;100.00;99617.56;4826734;29;19932;-69
2021/12/19 01:37:18;;;;;;;;;;;;;;;1.28;100.00;99618.50;4826470;29;19932;-69
2021/12/19 01:39:46;;;;;;;;;;;;;;;1.24;100.00;99607.28;4826418;29;19963;-70
2021/12/19 01:42:14;;;;;;;;;;;;;;;1.21;100.00;99607.88;4825805;29;19933;-69
2021/12/19 01:44:44;;;;;;;;;;;;;;;1.17;100.00;99606.06;4825995;29;19940;-70
2021/12/19 01:47:11;;;;;;;;;;;;;;;1.16;100.00;99596.13;4826550;29;20235;-69
2021/12/19 01:49:39;;;;;;;;;;;;;;;1.20;100.00;99595.22;4826410;29;19940;-69
2021/12/19 01:52:06;;;;;;;;;;;;;;;1.23;100.00;99593.78;4826105;29;19939;-69
2021/12/19 01:54:33;;;;;;;;;;;;;;;1.22;100.00;99581.94;4826196;29;19940;-69
2021/12/19 01:57:01;;;;;;;;;;;;;;;1.27;100.00;99581.06;4826356;29;20053;-69
2021/12/19 01:59:28;;;;;;;;;;;;;;;1.30;100.00;99572.16;4826151;29;19936;-69
2021/12/19 02:01:56;;;;;;;;;;;;;;;1.29;100.00;99576.88;4826295;29;19929;-69
2021/12/19 02:04:23;;;;;;;;;;;;;;;1.30;100.00;99572.97;4826229;29;19937;-69
2021/12/19 02:06:51;;;;;;;;;;;;;;;1.33;100.00;99569.63;4826276;29;19929;-69
2021/12/19 02:09:19;;;;;;;;;;;;;;;1.39;100.00;99573.09;4826088;29;19940;-70
2021/12/19 02:11:46;;;;;;;;;;;;;;;1.47;100.00;99561.34;4809902;29;19929;-69
2021/12/19 02:14:13;;;;;;;;;;;;;;;1.54;100.00;99560.94;4826275;29;19939;-69
2021/12/19 02:16:41;;;;;;;;;;;;;;;1.60;100.00;99560.50;4825607;29;19962;-69
2021/12/19 02:19:09;;;;;;;;;;;;;;;1.63;100.00;99551.63;4826021;29;19932;-70
2021/12/19 02:21:37;;;;;;;;;;;;;;;1.63;100.00;99562.66;4825976;29;20345;-70
2021/12/19 02:24:06;;;;;;;;;;;;;;;1.68;100.00;99559.78;4826535;29;19944;-69
2021/12/19 02:26:34;;;;;;;;;;;;;;;1.68;100.00;99550.72;4825879;29;19964;-69
2021/12/19 02:29:01;;;;;;;;;;;;;;;1.64;100.00;99557.97;4825963;29;19937;-69
2021/12/19 02:31:30;;;;;;;;;;;;;;;1.61;100.00;99539.28;4825887;29;19939;-69
2021/12/19 02:50:18;;;;;;;;;;;;;;;1.51;100.00;99528.47;4825855;29;19933;-69
2021/12/19 02:52:46;;;;;;;;;;;;;;;1.50;100.00;99522.16;4825317;29;19932;-69
2021/12/19 02:55:14;;;;;;;;;;;;;;;1.52;100.00;99519.88;4827764;29;19960;-70
2021/12/19 02:57:41;;;;;;;;;;;;;;;1.58;100.00;99512.31;4830053;29;20222;-70
2021/12/19 03:00:10;;;;;;;;;;;;;;;1.63;100.00;99510.28;4829221;29;20221;-69
2021/12/19 03:02:38;;;;;;;;;;;;;;;1.58;100.00;99513.16;4829094;29;19956;-69
2021/12/19 03:05:06;;;;;;;;;;;;;;;1.58;100.00;99504.88;4829037;29;19940;-69
2021/12/19 03:07:39;;;;;;;;;;;;;;;1.60;100.00;99505.38;4836385;29;19928;-70
2021/12/19 03:18:03;;;;;;;;;;;;;;;1.65;100.00;99497.00;4846821;29;19959;-69
2021/12/19 03:20:31;;;;;;;;;;;;;;;1.69;100.00;99505.44;4846708;29;19936;-69
2021/12/19 03:22:59;;;;;;;;;;;;;;;1.74;100.00;99506.16;4847229;29;20233;-69
2021/12/19 03:25:27;;;;;;;;;;;;;;;1.72;100.00;99500.13;4847117;29;19933;-69
2021/12/19 03:27:55;;;;;;;;;;;;;;;1.61;100.00;99493.25;4846870;29;20313;-69
2021/12/19 03:30:23;;;;;;;;;;;;;;;1.50;100.00;99493.75;4847054;29;20000;-69
2021/12/19 03:32:50;;;;;;;;;;;;;;;1.48;100.00;99496.00;4845909;29;19936;-70
2021/12/19 03:35:18;;;;;;;;;;;;;;;1.44;100.00;99487.56;4846729;29;19939;-69
2021/12/19 03:37:45;;;;;;;;;;;;;;;1.38;100.00;99488.78;4846726;29;19939;-69
2021/12/19 03:40:14;;;;;;;;;;;;;;;1.37;100.00;99487.13;4830690;29;20195;-69
2021/12/19 03:42:45;;;;;;;;;;;;;;;1.40;100.00;99489.28;4846446;29;19929;-69
2021/12/19 03:45:20;;;;;;;;;;;;;;;1.40;100.00;99478.25;4846705;29;20318;-69
2021/12/19 03:47:48;;;;;;;;;;;;;;;1.44;100.00;99482.06;4846419;29;19932;-69
2021/12/19 03:50:19;;;;;;;;;;;;;;;1.49;100.00;99475.59;4846819;29;19933;-69
2021/12/19 03:52:47;;;;;;;;;;;;;;;1.52;100.00;99469.44;4845985;29;19935;-69
2021/12/19 03:55:14;;;;;;;;;;;;;;;1.58;100.00;99471.81;4846776;29;19940;-69
2021/12/19 03:57:42;;;;;;;;;;;;;;;1.62;100.00;99460.94;4846558;29;19936;-69
2021/12/19 04:00:12;;;;;;;;;;;;;;;1.63;100.00;99460.66;4846186;29;19936;-69
2021/12/19 04:02:40;;;;;;;;;;;;;;;1.73;100.00;99459.59;4846642;29;19936;-69
2021/12/19 04:05:07;;;;;;;;;;;;;;;1.72;100.00;99450.50;4846145;29;19932;-69
2021/12/19 04:07:35;;;;;;;;;;;;;;;1.78;100.00;99457.56;4845888;29;20332;-69
2021/12/19 04:10:02;;;;;;;;;;;;;;;1.81;100.00;99456.13;4846410;29;19959;-69
2021/12/19 04:12:30;;;;;;;;;;;;;;;1.84;100.00;99460.97;4846321;29;19928;-69
2021/12/19 04:14:57;;;;;;;;;;;;;;;1.81;100.00;99450.59;4845584;29;20380;-69
2021/12/19 04:17:25;;;;;;;;;;;;;;;1.75;100.00;99449.91;4845740;29;19963;-69
2021/12/19 04:19:52;;;;;;;;;;;;;;;1.79;100.00;99447.31;4846131;29;19936;-69
2021/12/19 04:22:19;;;;;;;;;;;;;;;1.82;100.00;99435.66;4846016;29;19975;-69
2021/12/19 04:24:47;;;;;;;;;;;;;;;1.78;100.00;99431.91;4845656;29;19939;-69
2021/12/19 04:27:15;;;;;;;;;;;;;;;1.75;100.00;99440.81;4845943;29;19929;-69
2021/12/19 04:29:42;;;;;;;;;;;;;;;1.79;100.00;99436.28;4846114;29;19936;-69
2021/12/19 04:32:11;;;;;;;;;;;;;;;1.79;100.00;99447.31;4846156;29;19991;-69
2021/12/19 04:34:38;;;;;;;;;;;;;;;1.70;100.00;99438.16;4845483;29;19933;-69
2021/12/19 04:37:25;;;;;;;;;;;;;;;1.67;100.00;99439.59;4845690;29;19936;-69
2021/12/19 04:40:00;;;;;;;;;;;;;;;1.66;100.00;99454.53;4845451;29;19928;-69
2021/12/19 04:56:27;;;;;;;;;;;;;;;1.35;100.00;99442.56;4844979;29;19939;-69
2021/12/19 05:03:50;;;;;;;;;;;;;;;1.55;100.00;99444.84;4828982;29;19938;-69
2021/12/19 05:14:36;;;;;;;;;;;;;;;1.33;100.00;99440.13;4845065;29;19939;-69
2021/12/19 05:17:10;;;;;;;;;;;;;;;1.35;100.00;99437.03;4845233;29;19928;-69
2021/12/19 05:19:51;;;;;;;;;;;;;;;1.30;100.00;99428.88;4845262;29;20297;-69
2021/12/19 05:22:20;;;;;;;;;;;;;;;1.19;100.00;99427.50;4844706;29;19932;-69
2021/12/19 05:25:00;;;;;;;;;;;;;;;1.14;100.00;99422.91;4845021;29;20238;-70
2021/12/19 05:27:27;;;;;;;;;;;;;;;1.18;100.00;99425.84;4844301;29;19963;-70
2021/12/19 05:29:55;;;;;;;;;;;;;;;1.11;100.00;99414.44;4844533;29;19936;-70
2021/12/19 05:32:22;;;;;;;;;;;;;;;1.04;100.00;99416.81;4844646;29;19936;-69
2021/12/19 05:34:49;;;;;;;;;;;;;;;1.06;100.00;99415.38;4844843;29;19937;-69
2021/12/19 05:45:34;;;;;;;;;;;;;;;1.33;100.00;99406.22;4844312;29;19932;-69
2021/12/19 05:48:02;;;;;;;;;;;;;;;1.29;100.00;99403.31;4844409;29;19935;-69
2021/12/19 05:50:29;;;;;;;;;;;;;;;1.35;100.00;99401.22;4844462;29;19964;-69
2021/12/19 05:52:56;;;;;;;;;;;;;;;1.39;100.00;99404.19;4844016;29;19940;-70
2021/12/19 05:55:24;;;;;;;;;;;;;;;1.44;100.00;99404.06;4844367;29;19936;-69
2021/12/19 05:57:51;;;;;;;;;;;;;;;1.47;100.00;99397.94;4843957;29;19932;-69
2021/12/19 06:00:19;;;;;;;;;;;;;;;1.47;100.00;99398.72;4844299;29;19932;-70
2021/12/19 06:02:47;;;;;;;;;;;;;;;1.50;100.00;99384.34;4844492;29;19949;-69
2021/12/19 06:05:14;;;;;;;;;;;;;;;1.58;100.00;99382.78;4844230;29;19937;-69
2021/12/19 06:07:42;;;;;;;;;;;;;;;1.64;100.00;99368.53;4844097;29;19933;-69
2021/12/19 06:10:10;;;;;;;;;;;;;;;1.69;100.00;99364.84;4843726;29;20000;-69
2021/12/19 06:12:37;;;;;;;;;;;;;;;1.73;100.00;99372.19;4843645;29;19932;-69
2021/12/19 06:15:06;;;;;;;;;;;;;;;1.78;100.00;99368.50;4843569;29;20225;-69
2021/12/19 06:17:33;;;;;;;;;;;;;;;1.82;100.00;99359.28;4844655;29;19933;-69
2021/12/19 06:20:01;;;;;;;;;;;;;;;1.85;100.00;99355.91;4843903;29;19932;-70
2021/12/19 06:22:28;;;;;;;;;;;;;;;1.88;100.00;99358.00;4843752;29;19936;-69
2021/12/19 06:24:55;;;;;;;;;;;;;;;1.88;100.00;99355.25;4857957;29;20229;-69
2021/12/19 06:27:23;;;;;;;;;;;;;;;1.86;100.00;99354.75;4843494;29;19932;-69
2021/12/19 06:29:50;;;;;;;;;;;;;;;1.84;100.00;99336.88;4843731;29;19933;-69
2021/12/19 06:32:18;;;;;;;;;;;;;;;1.78;100.00;99336.22;4843599;29;20221;-69
2021/12/19 06:34:45;;;;;;;;;;;;;;;1.75;100.00;99339.59;4844069;29;19933;-69
2021/12/19 06:37:13;;;;;;;;;;;;;;;1.73;100.00;99330.84;4843583;29;20225;-69
2021/12/19 06:39:41;;;;;;;;;;;;;;;1.73;100.00;99330.03;4843579;29;19940;-69
2021/12/19 06:42:09;;;;;;;;;;;;;;;1.73;100.00;99332.78;4843592;29;19939;-69
2021/12/19 06:44:37;;;;;;;;;;;;;;;1.77;100.00;99322.75;4843959;29;19939;-69
2021/12/19 06:47:04;;;;;;;;;;;;;;;1.81;100.00;99316.28;4843775;29;20221;-69
2021/12/19 06:49:32;;;;;;;;;;;;;;;1.86;100.00;99313.38;4844193;29;19933;-69
2021/12/19 06:51:59;;;;;;;;;;;;;;;1.89;100.00;99309.19;4843588;29;19940;-69
2021/12/19 06:54:26;;;;;;;;;;;;;;;1.81;100.00;99308.00;4843847;29;20270;-69
2021/12/19 06:56:54;;;;;;;;;;;;;;;1.78;100.00;99311.41;4843875;29;20226;-69
2021/12/19 06:59:21;;;;;;;;;;;;;;;1.78;100.00;99303.13;4842955;29;20310;-69
2021/12/19 07:01:49;;;;;;;;;;;;;;;1.81;100.00;99307.22;4826962;29;19933;-69
2021/12/19 07:04:16;;;;;;;;;;;;;;;1.82;100.00;99298.59;4843653;29;20307;-69
2021/12/19 07:06:43;;;;;;;;;;;;;;;1.79;100.00;99296.47;4843603;29;19932;-69
2021/12/19 07:09:11;;;;;;;;;;;;;;;1.72;100.00;99292.53;4843612;29;19929;-69
2021/12/19 07:11:38;;;;;;;;;;;;;;;1.74;100.00;99290.28;4827499;29;19929;-69
2021/12/19 07:14:05;;;;;;;;;;;;;;;1.77;100.00;99286.88;4843809;29;19932;-69
2021/12/19 07:16:33;;;;;;;;;;;;;;;1.84;100.00;99285.31;4843359;29;19936;-69
2021/12/19 07:19:00;;;;;;;;;;;;;;;1.91;100.00;99282.09;4843284;29;19932;-69
2021/12/19 07:21:29;;;;;;;;;;;;;;;1.97;100.00;99284.41;4843549;29;19937;-69
2021/12/19 07:23:59;;;;;;;;;;;;;;;1.98;100.00;99282.47;4843430;29;20217;-69
2021/12/19 07:26:26;;;;;;;;;;;;;;;2.25;100.00;99284.19;4843464;29;19948;-70
2021/12/19 07:28:53;;;;;;;;;;;;;;;2.66;100.00;99290.16;4843344;29;19933;-69
2021/12/19 07:31:21;;;;;;;;;;;;;;;3.09;100.00;99284.66;4844238;29;19936;-70
2021/12/19 07:33:48;;;;;;;;;;;;;;;3.66;100.00;99293.56;4843742;29;19932;-70
2021/12/19 07:36:18;;;;;;;;;;;;;;;4.50;100.00;99299.13;4843224;29;19935;-70
2021/12/19 07:38:54;;;;;;;;;;;;;;;5.09;100.00;99294.34;4843153;29;19928;-70
2021/12/19 07:41:21;;;;;;;;;;;;;;;5.62;100.00;99305.50;4843759;29;19940;-69
2021/12/19 07:43:49;;;;;;;;;;;;;;;6.41;100.00;99302.34;4861036;29;19936;-70
2021/12/19 07:46:16;;;;;;;;;;;;;;;7.37;100.00;99310.94;4830234;29;19932;-70
2021/12/19 07:48:43;;;;;;;;;;;;;;;8.53;100.00;99306.66;4846533;29;19936;-70
2021/12/19 07:51:11;;;;;;;;;;;;;;;9.99;100.00;99316.31;4838628;29;19934;-70
2021/12/19 07:53:38;;;;;;;;;;;;;;;11.83;98.39;99312.56;4830142;29;19928;-68
2021/12/19 07:56:05;;;;;;;;;;;;;;;13.15;85.66;99317.06;4846247;29;19935;-68
2021/12/19 07:58:33;;;;;;;;;;;;;;;14.95;75.34;99325.41;4845950;29;19936;-68
2021/12/19 08:01:00;;;;;;;;;;;;;;;16.56;62.21;99319.72;4846649;29;20198;-70
2021/12/19 08:03:28;;;;;;;;;;;;;;;18.04;55.96;99333.31;4846168;29;19928;-70
2021/12/19 08:05:55;;;;;;;;;;;;;;;19.24;50.28;99330.78;4846247;29;19933;-70
2021/12/19 08:08:27;;;;;;;;;;;;;;;20.67;43.06;99329.16;4830250;29;20000;-70
2021/12/19 08:13:40;;;;;;;;;;;;;;;21.04;38.12;99335.59;4845837;29;19980;-69
2021/12/19 08:16:07;;;;;;;;;;;;;;;20.28;38.71;99323.53;4846426;29;19963;-69
2021/12/19 08:18:34;;;;;;;;;;;;;;;19.91;40.31;99327.50;4845804;29;20221;-69
2021/12/19 08:21:02;;;;;;;;;;;;;;;19.34;41.43;99321.28;4846143;29;19952;-69
2021/12/19 08:23:29;;;;;;;;;;;;;;;18.41;42.33;99328.78;4846795;29;19956;-70
2021/12/19 08:25:56;;;;;;;;;;;;;;;17.57;44.34;99337.88;4846476;29;20253;-70
2021/12/19 08:28:24;;;;;;;;;;;;;;;16.52;47.73;99330.22;4845225;29;19968;-70
2021/12/19 08:30:51;;;;;;;;;;;;;;;16.13;50.67;99325.56;4846037;29;19930;-70
2021/12/19 08:33:19;;;;;;;;;;;;;;;15.23;54.53;99325.41;4845567;29;19932;-70
2021/12/19 08:35:46;;;;;;;;;;;;;;;14.37;58.24;99325.75;4845726;29;20225;-70
2021/12/19 08:38:13;;;;;;;;;;;;;;;14.33;57.42;99327.72;4846272;29;19929;-70
2021/12/19 08:40:41;;;;;;;;;;;;;;;14.71;55.83;99327.00;4845604;29;19935;-68
2021/12/19 08:43:09;;;;;;;;;;;;;;;15.25;51.29;99319.34;4845585;29;19944;-68
2021/12/19 08:45:36;;;;;;;;;;;;;;;14.78;51.83;99317.75;4845473;29;19929;-69
2021/12/19 08:48:05;;;;;;;;;;;;;;;13.66;54.36;99314.19;4845521;29;19928;-69
2021/12/19 08:50:33;;;;;;;;;;;;;;;12.80;59.06;99313.16;4845133;29;20229;-68
2021/12/19 08:53:00;;;;;;;;;;;;;;;11.92;62.08;99307.47;4844993;29;19929;-70
2021/12/19 08:55:29;;;;;;;;;;;;;;;10.76;68.72;99314.94;4845454;29;19982;-70
2021/12/19 08:57:56;;;;;;;;;;;;;;;10.19;72.78;99307.56;4845365;29;19950;-70
2021/12/19 09:00:23;;;;;;;;;;;;;;;9.95;73.04;99296.69;4845429;29;19956;-70
2021/12/19 09:02:53;;;;;;;;;;;;;;;9.70;74.79;99293.41;4844810;29;19955;-70
2021/12/19 09:05:21;;;;;;;;;;;;;;;9.43;76.88;99286.06;4828552;29;19977;-70
2021/12/19 09:07:50;;;;;;;;;;;;;;;8.52;84.67;99273.56;4844628;29;20379;-70
2021/12/19 09:10:19;;;;;;;;;;;;;;;7.79;89.09;99276.00;4844985;29;19953;-70
2021/12/19 09:12:47;;;;;;;;;;;;;;;7.73;91.88;99275.44;4845313;29;19958;-70
2021/12/19 09:15:14;;;;;;;;;;;;;;;7.54;94.18;99272.50;4845085;29;20306;-70
2021/12/19 09:17:42;;;;;;;;;;;;;;;7.48;99.86;99267.56;4844827;29;19936;-69
2021/12/19 09:20:09;;;;;;;;;;;;;;;7.39;97.51;99269.66;4844839;29;19936;-70
2021/12/19 09:22:37;;;;;;;;;;;;;;;7.24;100.00;99263.69;4844760;29;19933;-70
2021/12/19 09:25:15;;;;;;;;;;;;;;;7.59;96.26;99268.66;4844907;29;19928;-70
2021/12/19 09:27:42;;;;;;;;;;;;;;;7.86;92.68;99268.66;4844882;29;19932;-70
2021/12/19 09:30:10;;;;;;;;;;;;;;;8.10;92.42;99273.25;4828248;29;19939;-70
2021/12/19 09:32:38;;;;;;;;;;;;;;;8.23;91.48;99260.06;4844671;29;20416;-70
2021/12/19 09:35:06;;;;;;;;;;;;;;;8.27;90.16;99267.38;4844614;29;19945;-70
2021/12/19 09:37:36;;;;;;;;;;;;;;;8.45;86.80;99259.47;4844708;29;19929;-70
2021/12/19 09:40:04;;;;;;;;;;;;;;;8.64;86.37;99261.50;4844778;29;20322;-70
2021/12/19 09:42:34;;;;;;;;;;;;;;;8.59;90.92;99257.00;4844231;29;19936;-70
2021/12/19 09:45:03;;;;;;;;;;;;;;;8.67;91.80;99253.22;4844364;29;20255;-70
2021/12/19 09:47:30;;;;;;;;;;;;;;;8.87;86.19;99252.13;4844225;29;19933;-70
2021/12/19 09:50:00;;;;;;;;;;;;;;;8.98;87.44;99244.78;4844347;29;19933;-70
2021/12/19 09:52:28;;;;;;;;;;;;;;;9.15;85.60;99249.13;4843996;29;19928;-70
2021/12/19 09:54:55;;;;;;;;;;;;;;;9.34;84.38;99251.94;4844468;29;19945;-70
2021/12/19 09:57:23;;;;;;;;;;;;;;;9.44;83.43;99245.78;4844096;29;19929;-70
2021/12/19 09:59:50;;;;;;;;;;;;;;;9.51;84.74;99231.97;4844294;29;19933;-69
2021/12/19 10:02:18;;;;;;;;;;;;;;;9.58;86.47;99236.91;4844193;29;19928;-70
2021/12/19 10:04:45;;;;;;;;;;;;;;;9.57;88.85;99230.50;4843677;29;19936;-69
2021/12/19 10:07:13;;;;;;;;;;;;;;;9.70;89.46;99226.38;4844306;29;19934;-69
2021/12/19 10:09:55;;;;;;;;;;;;;;;9.90;87.29;99219.56;4844203;29;19929;-69
2021/12/19 10:15:02;;;;;;;;;;;;;;;10.34;83.82;99219.97;4844263;29;19929;-70
2021/12/19 10:17:30;;;;;;;;;;;;;;;10.56;83.18;99213.53;4843794;29;20306;-70
2021/12/19 10:19:58;;;;;;;;;;;;;;;10.43;84.57;99206.56;4844319;29;19929;-70
2021/12/19 10:22:30;;;;;;;;;;;;;;;10.58;83.38;99207.59;4843872;29;19949;-70
2021/12/19 10:25:17;;;;;;;;;;;;;;;10.61;83.14;99203.22;4843691;29;20499;-70
2021/12/19 10:27:52;;;;;;;;;;;;;;;10.66;82.65;99200.13;4827886;29;19936;-70
2021/12/19 10:30:22;;;;;;;;;;;;;;;10.70;81.83;99190.59;4843563;29;19943;-70
2021/12/19 10:32:51;;;;;;;;;;;;;;;10.71;80.01;99189.38;4843359;29;19937;-70
2021/12/19 10:35:27;;;;;;;;;;;;;;;10.59;79.74;99178.41;4843928;29;20237;-70
2021/12/19 10:37:55;;;;;;;;;;;;;;;10.19;85.97;99175.41;4827668;29;19959;-70
2021/12/19 10:40:22;;;;;;;;;;;;;;;10.04;88.05;99171.53;4843142;29;19940;-71
2021/12/19 10:42:54;;;;;;;;;;;;;;;10.15;87.71;99166.16;4843721;29;19991;-70
2021/12/19 10:45:32;;;;;;;;;;;;;;;10.11;88.15;99160.47;4843643;29;19928;-70
2021/12/19 10:48:16;;;;;;;;;;;;;;;10.08;88.04;99160.38;4843507;29;19932;-70
2021/12/19 10:50:55;;;;;;;;;;;;;;;10.19;89.60;99159.44;4843738;29;19933;-70
2021/12/19 10:53:24;;;;;;;;;;;;;;;10.16;88.50;99159.38;4843984;29;19936;-70
2021/12/19 10:55:51;;;;;;;;;;;;;;;10.20;89.16;99152.66;4843492;29;20641;-70
2021/12/19 10:58:25;;;;;;;;;;;;;;;10.18;89.71;99148.63;4843286;29;19937;-70
2021/12/19 11:00:56;;;;;;;;;;;;;;;10.23;89.13;99148.28;4843168;29;19939;-70
2021/12/19 11:03:37;;;;;;;;;;;;;;;10.14;89.31;99142.16;4843720;29;20194;-70
2021/12/19 11:06:19;;;;;;;;;;;;;;;10.16;90.04;99145.38;5348765;24;19934;-70
2021/12/19 11:08:49;;;;;;;;;;;;;;;10.07;90.75;99140.03;4901736;29;19933;-70
2021/12/19 11:11:31;;;;;;;;;;;;;;;9.97;91.31;99137.06;4901066;29;19927;-70
2021/12/19 11:13:59;;;;;;;;;;;;;;;9.96;92.39;99141.03;4900723;29;19928;-70
2021/12/19 11:16:26;;;;;;;;;;;;;;;9.99;93.84;99135.50;4903524;29;19934;-70
2021/12/19 11:18:54;;;;;;;;;;;;;;;9.98;94.62;99127.50;4904859;29;19938;-70
2021/12/19 11:21:22;;;;;;;;;;;;;;;10.00;94.58;99119.56;4904467;29;19934;-70
2021/12/19 11:23:49;;;;;;;;;;;;;;;10.02;95.05;99114.41;4904371;29;20221;-70
2021/12/19 11:26:18;;;;;;;;;;;;;;;10.06;96.92;99118.03;4904745;29;19928;-70
2021/12/19 11:28:47;;;;;;;;;;;;;;;10.03;97.47;99113.19;4904326;29;19958;-70
2021/12/19 11:31:14;;;;;;;;;;;;;;;10.06;99.03;99098.47;4903672;29;19935;-70
2021/12/19 11:33:45;;;;;;;;;;;;;;;10.15;98.05;99101.88;4887909;29;19934;-70
2021/12/19 11:36:13;;;;;;;;;;;;;;;10.17;97.98;99097.50;4904636;29;19927;-70
2021/12/19 11:38:43;;;;;;;;;;;;;;;10.14;98.01;99083.47;4887713;29;19934;-70
2021/12/19 11:41:10;;;;;;;;;;;;;;;10.02;99.64;99080.88;4904246;29;19927;-70
2021/12/19 11:43:39;;;;;;;;;;;;;;;9.99;100.00;99071.25;4904469;29;19927;-70
2021/12/19 11:46:23;;;;;;;;;;;;;;;10.08;100.00;99068.97;4903982;29;19936;-70
2021/12/19 11:49:10;;;;;;;;;;;;;;;9.99;100.00;99056.47;4903574;29;19934;-70
2021/12/19 11:51:37;;;;;;;;;;;;;;;9.85;100.00;99052.25;4888158;29;19934;-70
2021/12/19 11:54:16;;;;;;;;;;;;;;;9.88;100.00;99053.50;4903626;29;20309;-70
2021/12/19 11:57:09;;;;;;;;;;;;;;;9.88;100.00;99051.50;4904550;29;19927;-70
2021/12/19 11:59:38;;;;;;;;;;;;;;;10.04;100.00;99042.19;4903969;29;19928;-70
2021/12/19 12:02:22;;;;;;;;;;;;;;;9.91;100.00;99036.81;4904447;29;20221;-70
2021/12/19 12:05:07;;;;;;;;;;;;;;;9.88;100.00;99029.16;4903342;29;19959;-70
2021/12/19 12:07:54;;;;;;;;;;;;;;;9.94;100.00;99021.28;4887669;29;19932;-70
2021/12/19 12:10:21;;;;;;;;;;;;;;;9.90;100.00;99014.84;4903686;29;19935;-70
2021/12/19 12:12:49;;;;;;;;;;;;;;;9.80;100.00;99007.09;4903346;29;19934;-70
2021/12/19 12:15:25;;;;;;;;;;;;;;;9.63;100.00;98997.28;4904204;29;19927;-70
2021/12/19 12:17:54;;;;;;;;;;;;;;;9.63;100.00;99002.03;4903531;29;19927;-70
2021/12/19 12:20:25;;;;;;;;;;;;;;;9.55;100.00;98998.31;4917923;29;19934;-70
2021/12/19 12:22:54;;;;;;;;;;;;;;;9.39;100.00;98989.25;4903143;29;19928;-70
2021/12/19 12:25:24;;;;;;;;;;;;;;;9.42;100.00;98991.31;4903342;29;19927;-70
2021/12/19 12:27:55;;;;;;;;;;;;;;;9.18;100.00;98984.16;4902571;29;19928;-70
2021/12/19 12:30:27;;;;;;;;;;;;;;;9.25;100.00;98986.25;4903526;29;19986;-70
2021/12/19 12:32:55;;;;;;;;;;;;;;;9.16;100.00;98985.69;4903671;29;19935;-70
2021/12/19 12:35:25;;;;;;;;;;;;;;;9.15;100.00;98982.09;4903770;29;20194;-70
2021/12/19 12:37:54;;;;;;;;;;;;;;;8.85;100.00;98980.34;4903148;29;19927;-70
2021/12/19 12:40:28;;;;;;;;;;;;;;;8.92;100.00;98969.31;4903190;29;19927;-70
2021/12/19 12:42:59;;;;;;;;;;;;;;;8.92;100.00;98958.97;4903203;29;19939;-70
2021/12/19 12:45:28;;;;;;;;;;;;;;;8.79;100.00;98965.06;4902857;29;19934;-70
2021/12/19 12:47:55;;;;;;;;;;;;;;;8.89;100.00;98964.47;4902814;29;20341;-70
2021/12/19 12:50:23;;;;;;;;;;;;;;;8.88;100.00;98962.84;4902644;29;19935;-70
2021/12/19 12:52:51;;;;;;;;;;;;;;;8.76;100.00;98958.25;4903014;29;20186;-70
2021/12/19 12:55:18;;;;;;;;;;;;;;;8.78;100.00;98947.53;4902992;29;19935;-70
2021/12/19 12:57:46;;;;;;;;;;;;;;;8.87;100.00;98948.13;4903099;29;20257;-70
2021/12/19 13:00:17;;;;;;;;;;;;;;;8.80;100.00;98938.81;4902773;29;19927;-70
2021/12/19 13:02:52;;;;;;;;;;;;;;;8.84;100.00;98934.09;4902495;29;19928;-70
2021/12/19 13:05:20;;;;;;;;;;;;;;;8.81;100.00;98935.66;4903074;29;19928;-70
2021/12/19 13:07:47;;;;;;;;;;;;;;;8.86;100.00;98929.75;4902569;29;19927;-70
2021/12/19 13:10:14;;;;;;;;;;;;;;;8.82;100.00;98928.09;4902442;29;19928;-70
2021/12/19 13:12:42;;;;;;;;;;;;;;;8.86;100.00;98913.03;4902734;29;19934;-70
2021/12/19 13:15:15;;;;;;;;;;;;;;;8.71;100.00;98913.13;4902989;29;19932;-70
2021/12/19 13:17:48;;;;;;;;;;;;;;;8.58;100.00;98904.94;4903121;29;19932;-70
2021/12/19 13:20:16;;;;;;;;;;;;;;;8.52;100.00;98898.09;4902592;29;19935;-70
2021/12/19 13:22:46;;;;;;;;;;;;;;;8.46;100.00;98902.34;4902319;29;19935;-70
2021/12/19 13:25:15;;;;;;;;;;;;;;;8.49;100.00;98889.63;4895238;29;19944;-70
2021/12/19 13:27:44;;;;;;;;;;;;;;;8.48;100.00;98886.06;4902005;29;19927;-70
2021/12/19 13:30:13;;;;;;;;;;;;;;;8.47;100.00;98886.41;4901965;29;19935;-70
2021/12/19 13:32:44;;;;;;;;;;;;;;;8.39;100.00;98891.06;4901987;29;19932;-70
2021/12/19 13:35:14;;;;;;;;;;;;;;;8.31;100.00;98882.94;4901555;29;19928;-70
2021/12/19 13:37:46;;;;;;;;;;;;;;;8.26;100.00;98886.84;4902221;29;19928;-70
2021/12/19 13:40:14;;;;;;;;;;;;;;;8.12;100.00;98880.16;4901628;29;19958;-70
2021/12/19 13:42:41;;;;;;;;;;;;;;;8.09;100.00;98872.53;4901643;29;19931;-70
2021/12/19 13:45:26;;;;;;;;;;;;;;;7.95;100.00;98878.59;4901885;29;19927;-70
2021/12/19 13:47:54;;;;;;;;;;;;;;;7.86;100.00;98880.78;4902575;29;20305;-70
2021/12/19 13:50:22;;;;;;;;;;;;;;;7.87;100.00;98868.50;4901471;29;19927;-70
2021/12/19 13:52:50;;;;;;;;;;;;;;;7.80;100.00;98865.56;4901835;29;19928;-70
2021/12/19 13:55:18;;;;;;;;;;;;;;;7.74;100.00;98867.84;4901659;29;19958;-69
2021/12/19 13:57:45;;;;;;;;;;;;;;;7.68;100.00;98871.25;4901687;29;19928;-70
2021/12/19 14:00:33;;;;;;;;;;;;;;;7.62;100.00;98875.50;4902060;29;19943;-70
2021/12/19 14:03:01;;;;;;;;;;;;;;;7.54;100.00;98870.94;4901360;29;19934;-70
2021/12/19 14:05:48;;;;;;;;;;;;;;;7.44;100.00;98872.31;4901646;29;20267;-70
2021/12/19 14:08:17;;;;;;;;;;;;;;;7.41;100.00;98866.69;4901298;29;20191;-69
2021/12/19 14:10:44;;;;;;;;;;;;;;;7.41;100.00;98861.13;4901627;29;19927;-70